Time;durP1;ratioP1;P1;durP2;ratioP2;P2;SDS_P1;SDS_P2;PMS_P1;PMS_P2;Temp;Humidity;BMP_temperature;BMP_pressure;BME280_temperature;BME280_humidity;BME280_pressure;Samples;Min_cycle;Max_cycle;Signal;HPM_P1;HPM_P2
2022/11/10 00:01:06;;;;;;;47.15;28.92;;;;;;;4.08;74.84;97309.01;1511245;93;26049;-74
2022/11/10 00:03:35;;;;;;;44.45;28.90;;;;;;;4.04;74.79;97309.02;1506636;93;28171;-74
2022/11/10 00:06:06;;;;;;;46.33;29.30;;;;;;;4.03;74.90;97322.03;1540159;92;25867;-76
2022/11/10 00:08:32;;;;;;;48.42;29.55;;;;;;;4.04;74.91;97325.04;1489074;96;25870;-76
2022/11/10 00:11:07;;;;;;;47.17;29.05;;;;;;;4.03;74.82;97328.71;1482410;96;25877;-74
2022/11/10 00:18:51;;;;;;;47.73;29.95;;;;;;;4.02;75.20;97337.73;1418979;99;25905;-77
2022/11/10 00:21:19;;;;;;;47.85;30.12;;;;;;;3.97;75.32;97331.09;1419796;101;25846;-75
2022/11/10 00:26:18;;;;;;;42.38;27.32;;;;;;;3.95;75.68;97338.44;1387884;102;25915;-74
2022/11/10 00:28:45;;;;;;;44.27;27.77;;;;;;;3.97;75.59;97344.44;1388029;102;28254;-74
2022/11/10 00:31:13;;;;;;;44.53;28.23;;;;;;;3.97;75.63;97331.59;1387988;101;25688;-74
2022/11/10 00:33:42;;;;;;;44.27;27.30;;;;;;;3.94;75.63;97339.44;1400246;101;25868;-77
2022/11/10 00:36:10;;;;;;;47.73;27.65;;;;;;;3.95;75.59;97343.77;1406513;101;25970;-75
2022/11/10 00:38:36;;;;;;;46.88;28.52;;;;;;;3.97;75.59;97339.09;1406579;101;25790;-74
2022/11/10 00:41:03;;;;;;;49.93;29.63;;;;;;;3.94;75.65;97342.11;1406675;100;28251;-75
2022/11/10 00:43:30;;;;;;;46.60;29.02;;;;;;;3.92;75.72;97337.94;1406476;101;25951;-74
2022/11/10 00:45:57;;;;;;;46.25;26.95;;;;;;;3.94;76.00;97343.44;1406458;101;25996;-77
2022/11/10 00:48:24;;;;;;;40.75;26.90;;;;;;;3.94;76.02;97352.78;1406683;101;25894;-75
2022/11/10 00:50:51;;;;;;;44.42;26.45;;;;;;;3.97;75.97;97356.95;1406573;101;25402;-75
2022/11/10 00:53:17;;;;;;;45.33;27.07;;;;;;;3.97;75.94;97363.64;1406646;101;27604;-75
2022/11/10 00:55:44;;;;;;;46.08;26.82;;;;;;;3.98;75.95;97359.97;1406276;102;25889;-78
2022/11/10 00:58:10;;;;;;;42.27;26.37;;;;;;;3.97;75.87;97357.80;1405002;101;25913;-74
2022/11/10 01:00:37;;;;;;;41.50;26.05;;;;;;;3.98;75.77;97362.63;1405200;102;25821;-75
2022/11/10 01:03:04;;;;;;;39.88;25.88;;;;;;;3.97;75.73;97360.97;1423767;100;25805;-76
2022/11/10 01:05:33;;;;;;;38.92;25.12;;;;;;;3.92;75.79;97360.62;1436838;99;27611;-76
2022/11/10 01:07:59;;;;;;;38.75;26.48;;;;;;;3.90;75.98;97364.80;1448247;98;26563;-77
2022/11/10 01:10:26;;;;;;;42.93;25.77;;;;;;;3.90;76.08;97369.31;1448294;99;25897;-77
2022/11/10 01:12:53;;;;;;;40.00;24.80;;;;;;;3.92;76.07;97367.31;1512299;92;26657;-76
2022/11/10 01:15:20;;;;;;;37.98;23.87;;;;;;;3.92;76.03;97365.47;1552851;92;25842;-74
2022/11/10 01:17:47;;;;;;;40.48;25.15;;;;;;;3.88;75.90;97364.13;1553001;92;28117;-77
2022/11/10 01:20:14;;;;;;;38.23;23.70;;;;;;;3.86;75.96;97374.18;1552603;92;26030;-74
2022/11/10 01:22:40;;;;;;;35.95;22.90;;;;;;;3.89;76.12;97375.66;1597421;83;25893;-74
2022/11/10 01:25:08;;;;;;;37.17;23.67;;;;;;;3.88;76.04;97374.81;1715513;83;25742;-74
2022/11/10 01:27:35;;;;;;;38.60;24.02;;;;;;;3.82;75.99;97375.52;1715426;83;25760;-74
2022/11/10 01:30:01;;;;;;;38.98;23.12;;;;;;;3.83;75.98;97383.02;1715490;83;28006;-76
2022/11/10 01:32:28;;;;;;;38.80;24.82;;;;;;;3.81;75.84;97374.34;1715383;83;26082;-77
2022/11/10 01:34:56;;;;;;;36.25;23.70;;;;;;;3.79;75.83;97374.51;1715555;83;26287;-77
2022/11/10 01:37:23;;;;;;;39.15;24.30;;;;;;;3.72;75.95;97370.86;1715458;83;25756;-76
2022/11/10 01:39:49;;;;;;;33.20;22.40;;;;;;;3.73;76.13;97371.20;1693092;83;25832;-74
2022/11/10 01:42:25;;;;;;;41.02;23.85;;;;;;;3.73;76.22;97361.85;1715392;83;27967;-74
2022/11/10 01:45:20;;;;;;;37.20;23.95;;;;;;;3.73;76.24;97367.70;1713566;83;25664;-75
2022/11/10 01:47:53;;;;;;;34.15;22.67;;;;;;;3.72;76.17;97368.20;1630924;87;26426;-77
2022/11/10 01:50:20;;;;;;;;;;;;;;;3.72;76.25;97371.36;1636505;87;25763;-77
2022/11/10 01:52:50;;;;;;;33.55;23.38;;;;;;;3.71;76.47;97373.20;1634171;87;25758;-75
2022/11/10 01:55:17;;;;;;;34.10;22.48;;;;;;;3.70;76.37;97379.53;1633889;87;28263;-75
2022/11/10 01:57:45;;;;;;;35.85;22.80;;;;;;;3.69;76.38;97381.88;1633749;87;25812;-76
2022/11/10 02:00:12;;;;;;;32.85;21.93;;;;;;;3.69;76.45;97390.38;1633854;87;25371;-77
2022/11/10 02:02:58;;;;;;;36.40;23.38;;;;;;;3.68;76.52;97390.88;1634160;87;26032;-77
2022/11/10 02:05:26;;;;;;;34.88;22.30;;;;;;;3.68;76.60;97390.88;1613608;88;25548;-75
2022/11/10 02:07:53;;;;;;;34.70;21.87;;;;;;;3.71;76.71;97389.72;1618993;88;28266;-76
2022/11/10 02:10:20;;;;;;;33.85;22.05;;;;;;;3.73;76.65;97395.73;1618970;88;25930;-74
2022/11/10 02:12:49;;;;;;;34.90;20.57;;;;;;;3.70;76.52;97390.22;1619071;88;25353;-74
2022/11/10 02:15:17;;;;;;;34.48;22.25;;;;;;;3.70;76.53;97393.38;1619093;88;25848;-75
2022/11/10 02:17:47;;;;;;;35.03;20.85;;;;;;;3.70;76.52;97387.55;1618967;88;25278;-76
2022/11/10 02:20:18;;;;;;;33.35;19.90;;;;;;;3.70;76.48;97394.22;1619064;88;28288;-75
2022/11/10 02:22:44;;;;;;;36.85;22.02;;;;;;;3.67;76.35;97396.38;1619078;88;25510;-76
2022/11/10 02:25:16;;;;;;;31.52;21.40;;;;;;;3.65;76.37;97403.22;1658175;84;25874;-75
2022/11/10 02:27:43;;;;;;;31.95;19.87;;;;;;;3.65;76.29;97411.73;1692942;84;34874;-77
2022/11/10 02:30:11;;;;;;;31.55;21.10;;;;;;;3.59;76.27;97409.25;1692765;84;25697;-75
2022/11/10 02:32:38;;;;;;;33.15;21.85;;;;;;;3.55;76.38;97408.73;1692868;84;27461;-74
2022/11/10 02:35:05;;;;;;;31.87;21.23;;;;;;;3.56;76.48;97406.91;1692872;84;25903;-76
2022/11/10 02:37:32;;;;;;;32.58;21.00;;;;;;;3.57;76.37;97416.58;1692777;84;25815;-77
2022/11/10 02:39:59;;;;;;;33.18;20.20;;;;;;;3.55;76.27;97415.91;1692706;84;26598;-75
2022/11/10 02:42:25;;;;;;;33.08;20.02;;;;;;;3.53;76.25;97413.91;1719098;82;25744;-74
2022/11/10 02:44:52;;;;;;;29.95;20.37;;;;;;;3.53;76.39;97423.24;1745251;82;28102;-75
2022/11/10 02:47:19;;;;;;;31.07;21.55;;;;;;;3.48;76.30;97420.26;1745042;82;25939;-74
2022/11/10 02:49:45;;;;;;;30.17;20.10;;;;;;;3.44;76.34;97424.25;1745171;82;25773;-76
2022/11/10 02:52:12;;;;;;;31.87;20.05;;;;;;;3.42;76.30;97423.58;1745023;82;25744;-77
2022/11/10 02:54:39;;;;;;;33.42;21.48;;;;;;;3.36;76.32;97430.43;1745149;82;25742;-75
2022/11/10 02:57:05;;;;;;;30.00;20.30;;;;;;;3.39;76.42;97441.24;1744743;81;27409;-74
2022/11/10 02:59:32;;;;;;;32.05;21.23;;;;;;;3.39;76.42;97439.91;1744399;82;25719;-74
2022/11/10 03:01:58;;;;;;;30.10;19.95;;;;;;;3.35;76.38;97446.59;1744662;82;25230;-76
2022/11/10 03:04:25;;;;;;;29.37;19.32;;;;;;;3.33;76.40;97448.09;1744779;82;25759;-74
2022/11/10 03:06:51;;;;;;;29.77;19.37;;;;;;;3.31;76.41;97455.92;1744683;82;25880;-74
2022/11/10 03:09:18;;;;;;;31.12;19.48;;;;;;;3.26;76.36;97451.91;1744750;82;28061;-77
2022/11/10 03:11:45;;;;;;;33.48;20.60;;;;;;;3.23;76.38;97458.92;1744530;82;25522;-76
2022/11/10 03:14:11;;;;;;;29.82;19.85;;;;;;;3.17;76.36;97459.56;1744866;81;26311;-74
2022/11/10 03:16:38;;;;;;;31.52;19.80;;;;;;;3.14;76.36;97456.41;1744768;82;25668;-76
2022/11/10 03:19:04;;;;;;;35.03;21.80;;;;;;;3.13;76.48;97454.24;1744901;82;25289;-77
2022/11/10 03:21:31;;;;;;;37.53;24.43;;;;;;;3.13;76.59;97458.25;1744726;82;27534;-75
2022/11/10 03:23:57;;;;;;;34.40;22.37;;;;;;;3.14;76.63;97461.75;1744815;82;25684;-75
2022/11/10 03:26:24;;;;;;;40.88;25.88;;;;;;;3.15;76.53;97456.72;1744863;82;25721;-74
2022/11/10 03:28:50;;;;;;;36.88;23.60;;;;;;;3.13;76.65;97460.91;1744768;82;25735;-77
2022/11/10 03:31:17;;;;;;;34.08;22.25;;;;;;;3.14;76.50;97460.41;1744837;82;25701;-74
2022/11/10 03:33:44;;;;;;;31.77;21.80;;;;;;;3.10;76.47;97455.06;1744764;82;27428;-74
2022/11/10 03:36:10;;;;;;;31.90;20.05;;;;;;;3.05;76.54;97451.53;1732630;82;25548;-76
2022/11/10 03:38:37;;;;;;;31.90;20.35;;;;;;;3.06;76.63;97460.38;1729602;82;25792;-74
2022/11/10 03:41:03;;;;;;;30.05;19.25;;;;;;;3.06;76.73;97462.55;1747525;81;25663;-77
2022/11/10 03:43:30;;;;;;;29.02;19.10;;;;;;;3.07;76.99;97456.71;1747734;82;25723;-74
2022/11/10 03:45:57;;;;;;;27.00;19.30;;;;;;;3.11;77.25;97462.91;1729790;82;27441;-75
2022/11/10 03:48:23;;;;;;;31.07;19.40;;;;;;;3.15;77.32;97464.22;1729546;82;25741;-74
2022/11/10 03:50:50;;;;;;;31.52;20.05;;;;;;;3.17;77.27;97460.06;1747666;82;25653;-74
2022/11/10 03:53:16;;;;;;;30.72;19.02;;;;;;;3.16;77.23;97464.56;1747483;82;25754;-77
2022/11/10 03:55:43;;;;;;;27.55;20.23;;;;;;;3.16;77.16;97469.89;1729562;82;25878;-76
2022/11/10 03:58:09;;;;;;;27.73;19.55;;;;;;;3.15;77.18;97471.39;1718373;82;27995;-74
2022/11/10 04:00:36;;;;;;;27.67;19.57;;;;;;;3.15;77.25;97482.89;1710491;83;25749;-74
2022/11/10 04:03:02;;;;;;;29.50;18.95;;;;;;;3.17;77.29;97487.57;1710869;83;26662;-74
2022/11/10 04:11:02;;;;;;;31.07;20.85;;;;;;;3.20;77.29;97485.92;1710685;83;28411;-76
2022/11/10 04:16:14;;;;;;;31.40;19.57;;;;;;;3.24;77.33;97493.11;1710703;83;25701;-76
2022/11/10 04:18:41;;;;;;;35.28;21.37;;;;;;;3.26;77.35;97498.59;1710746;83;25718;-75
2022/11/10 04:21:07;;;;;;;32.63;20.70;;;;;;;3.28;77.41;97496.26;1711041;83;25744;-77
2022/11/10 04:23:34;;;;;;;31.73;20.12;;;;;;;3.30;77.41;97496.94;1710800;83;28195;-77
2022/11/10 04:26:29;;;;;;;32.00;20.05;;;;;;;3.32;77.42;97501.62;1733239;82;26076;-77
2022/11/10 04:28:59;;;;;;;33.83;20.57;;;;;;;3.35;77.52;97507.97;1733259;82;25784;-77
2022/11/10 04:31:29;;;;;;;29.18;19.45;;;;;;;3.39;77.63;97514.63;1679354;85;25794;-74
2022/11/10 04:33:57;;;;;;;30.00;18.87;;;;;;;3.40;77.73;97518.47;1658273;86;26081;-74
2022/11/10 04:36:28;;;;;;;35.03;19.70;;;;;;;3.41;77.76;97515.30;1658212;86;28380;-74
2022/11/10 04:38:55;;;;;;;32.83;19.57;;;;;;;3.45;77.81;97520.66;1650374;86;25902;-76
2022/11/10 04:41:23;;;;;;;36.15;20.77;;;;;;;3.47;77.86;97518.17;1658220;86;25880;-75
2022/11/10 04:43:50;;;;;;;31.57;19.80;;;;;;;3.52;77.87;97525.66;1658310;86;26348;-74
2022/11/10 04:46:31;;;;;;;36.93;20.92;;;;;;;3.53;77.92;97522.83;1650345;86;26020;-74
2022/11/10 04:48:58;;;;;;;31.05;21.25;;;;;;;3.54;78.04;97520.50;1658177;86;27445;-77
2022/11/10 04:51:30;;;;;;;34.15;21.82;;;;;;;3.57;78.05;97520.68;1658210;86;25813;-75
2022/11/10 04:53:56;;;;;;;35.48;23.80;;;;;;;3.61;78.09;97523.36;1648403;86;25767;-74
2022/11/10 04:56:25;;;;;;;37.28;24.00;;;;;;;3.63;78.15;97520.00;1651832;86;26440;-75
2022/11/10 04:58:53;;;;;;;40.83;23.85;;;;;;;3.67;78.14;97523.19;1657722;85;44332;-74
2022/11/10 05:01:24;;;;;;;39.67;23.07;;;;;;;3.67;78.24;97510.67;1662975;86;27630;-74
2022/11/10 05:03:52;;;;;;;43.50;24.27;;;;;;;3.70;78.27;97517.03;1690174;84;25273;-74
2022/11/10 05:06:19;;;;;;;38.95;24.02;;;;;;;3.75;78.32;97531.19;1689986;83;25739;-74
2022/11/10 05:08:46;;;;;;;36.20;22.10;;;;;;;3.82;78.36;97540.23;1690165;84;25801;-75
2022/11/10 05:11:13;;;;;;;40.00;23.90;;;;;;;3.84;78.50;97539.07;1690323;84;25828;-74
2022/11/10 05:13:40;;;;;;;48.87;25.23;;;;;;;3.87;78.49;97541.88;1690238;84;27383;-73
2022/11/10 05:16:07;;;;;;;45.48;24.75;;;;;;;3.87;78.57;97541.39;1690204;84;25465;-74
2022/11/10 05:18:35;;;;;;;42.08;23.85;;;;;;;3.88;78.61;97544.39;1690385;84;25769;-74
2022/11/10 05:21:01;;;;;;;43.42;24.18;;;;;;;3.90;78.62;97538.39;1690101;83;25875;-76
2022/11/10 05:23:37;;;;;;;40.85;23.62;;;;;;;3.93;78.64;97543.41;1690288;84;25864;-74
2022/11/10 05:26:07;;;;;;;41.95;24.27;;;;;;;3.97;78.69;97555.44;1690184;84;27397;-76
2022/11/10 05:28:33;;;;;;;47.43;24.80;;;;;;;4.01;78.78;97557.25;1707383;83;25783;-75
2022/11/10 05:31:00;;;;;;;44.95;24.02;;;;;;;4.05;78.87;97557.27;1729874;82;25758;-76
2022/11/10 05:33:26;;;;;;;38.70;22.65;;;;;;;4.09;78.94;97563.12;1729753;82;25679;-76
2022/11/10 05:35:53;;;;;;;40.45;23.90;;;;;;;4.11;79.12;97555.74;1747738;82;25260;-76
2022/11/10 05:38:20;;;;;;;43.28;22.62;;;;;;;4.15;79.36;97567.78;1747619;82;28366;-77
2022/11/10 05:40:47;;;;;;;39.67;23.38;;;;;;;4.20;79.49;97562.78;1729549;82;25696;-75
2022/11/10 05:43:14;;;;;;;39.13;22.85;;;;;;;4.28;79.55;97569.45;1729645;82;25264;-74
2022/11/10 05:45:41;;;;;;;42.27;23.65;;;;;;;4.35;79.78;97564.58;1718606;83;26510;-74
2022/11/10 05:48:08;;;;;;;41.80;23.85;;;;;;;4.43;79.83;97571.78;1721066;83;25684;-76
2022/11/10 05:50:34;;;;;;;42.80;22.93;;;;;;;4.48;79.88;97572.09;1747436;82;27412;-75
2022/11/10 05:53:01;;;;;;;41.20;23.05;;;;;;;4.54;79.86;97567.42;1729653;82;25647;-77
2022/11/10 05:55:28;;;;;;;37.65;22.05;;;;;;;4.58;79.89;97574.11;1729663;82;25766;-75
2022/11/10 05:57:56;;;;;;;37.03;22.07;;;;;;;4.64;79.99;97572.08;1747253;81;26637;-74
2022/11/10 06:00:27;;;;;;;36.75;23.22;;;;;;;4.69;80.14;97573.75;1729579;82;25785;-75
2022/11/10 06:03:06;;;;;;;45.67;23.55;;;;;;;4.73;80.19;97574.22;1729707;82;28228;-74
2022/11/10 06:05:35;;;;;;;38.02;23.12;;;;;;;4.77;80.25;97590.77;1747588;82;25719;-74
2022/11/10 06:08:04;;;;;;;36.53;23.47;;;;;;;4.84;80.38;97591.73;1747601;82;25665;-76
2022/11/10 06:10:32;;;;;;;41.60;24.12;;;;;;;4.90;80.42;97595.09;1729633;82;26271;-75
2022/11/10 06:12:59;;;;;;;38.38;23.07;;;;;;;4.95;80.45;97600.77;1729606;82;25687;-75
2022/11/10 06:15:25;;;;;;;37.40;23.30;;;;;;;5.01;80.49;97607.59;1747684;82;27224;-76
2022/11/10 06:17:53;;;;;;;39.08;24.30;;;;;;;5.09;80.52;97616.09;1747432;82;25819;-75
2022/11/10 06:20:20;;;;;;;39.67;23.83;;;;;;;5.13;80.55;97619.27;1747666;82;25704;-75
2022/11/10 06:23:11;;;;;;;39.78;22.35;;;;;;;5.15;80.51;97615.42;1729647;82;25645;-74
2022/11/10 06:25:40;;;;;;;35.92;22.55;;;;;;;5.20;80.50;97615.72;1729602;82;25762;-74
2022/11/10 06:28:08;;;;;;;41.00;22.02;;;;;;;5.24;80.51;97621.06;1747523;81;28166;-75
2022/11/10 06:30:36;;;;;;;34.20;21.85;;;;;;;5.30;80.55;97628.42;1747536;82;25634;-75
2022/11/10 06:33:03;;;;;;;38.90;21.25;;;;;;;5.35;80.52;97630.05;1729724;82;25784;-74
2022/11/10 06:35:30;;;;;;;32.45;20.62;;;;;;;5.40;80.57;97634.40;1729747;82;25686;-74
2022/11/10 06:38:03;;;;;;;32.48;20.43;;;;;;;5.44;80.63;97626.33;1747230;82;25584;-75
2022/11/10 06:40:31;;;;;;;32.08;19.82;;;;;;;5.50;80.64;97629.34;1687896;84;27470;-76
2022/11/10 06:42:58;;;;;;;30.62;19.73;;;;;;;5.57;80.68;97636.98;1663263;86;25562;-75
2022/11/10 06:45:27;;;;;;;35.43;20.27;;;;;;;5.62;80.61;97642.67;1663320;86;25747;-74
2022/11/10 06:48:03;;;;;;;34.83;20.65;;;;;;;5.67;80.53;97645.67;1652622;86;25889;-74
2022/11/10 06:50:30;;;;;;;32.73;20.30;;;;;;;5.74;80.45;97650.64;1660721;86;25868;-74
2022/11/10 06:52:57;;;;;;;36.38;20.20;;;;;;;5.80;80.35;97653.45;1660826;86;27425;-74
2022/11/10 06:55:24;;;;;;;32.17;20.43;;;;;;;5.86;80.33;97651.92;1660758;86;25502;-74
2022/11/10 06:57:51;;;;;;;36.60;21.95;;;;;;;5.92;80.43;97651.23;1660895;86;26643;-74
2022/11/10 07:00:18;;;;;;;36.15;21.75;;;;;;;5.98;80.35;97656.41;1660323;86;26371;-74
2022/11/10 07:02:44;;;;;;;31.15;20.77;;;;;;;6.04;80.28;97664.56;1660546;86;25511;-76
2022/11/10 07:05:11;;;;;;;33.02;21.57;;;;;;;6.08;80.28;97669.91;1660306;86;27504;-74
2022/11/10 07:07:38;;;;;;;34.78;21.40;;;;;;;6.13;80.33;97676.09;1660498;86;25649;-76
2022/11/10 07:10:05;;;;;;;33.78;21.05;;;;;;;6.16;80.32;97673.57;1660518;86;25797;-74
2022/11/10 07:12:32;;;;;;;35.78;19.90;;;;;;;6.19;80.34;97676.71;1660439;86;25729;-74
2022/11/10 07:14:59;;;;;;;29.87;19.95;;;;;;;6.23;80.33;97683.90;1660603;86;25817;-76
2022/11/10 07:17:25;;;;;;;30.50;20.10;;;;;;;6.27;80.33;97678.52;1660549;86;27614;-74
2022/11/10 07:19:52;;;;;;;38.02;21.42;;;;;;;6.32;80.35;97685.51;1660355;86;25796;-74
2022/11/10 07:22:18;;;;;;;38.78;21.23;;;;;;;6.36;80.39;97685.49;1660551;86;25364;-73
2022/11/10 07:24:45;;;;;;;36.75;22.05;;;;;;;6.43;80.32;97686.44;1660568;86;25733;-74
2022/11/10 07:27:11;;;;;;;37.78;22.42;;;;;;;6.47;80.33;97687.76;1660643;86;25800;-74
2022/11/10 07:29:38;;;;;;;39.92;22.73;;;;;;;6.54;80.34;97699.94;1663421;83;27374;-75
2022/11/10 07:32:05;;;;;;;43.87;25.15;;;;;;;6.58;80.25;97698.57;1718007;83;25698;-74
2022/11/10 07:34:31;;;;;;;39.27;25.68;;;;;;;6.63;80.26;97701.06;1718051;83;25713;-76
2022/11/10 07:36:58;;;;;;;49.40;26.87;;;;;;;6.69;80.26;97703.01;1718128;83;25685;-74
2022/11/10 07:39:25;;;;;;;41.95;25.40;;;;;;;6.74;80.32;97706.00;1718207;83;25904;-74
2022/11/10 07:41:51;;;;;;;42.27;25.70;;;;;;;6.78;80.32;97709.97;1718195;83;27432;-77
2022/11/10 07:44:18;;;;;;;41.83;25.50;;;;;;;6.83;80.31;97709.44;1718116;83;25830;-74
2022/11/10 07:46:45;;;;;;;45.45;25.20;;;;;;;6.86;80.29;97708.58;1718060;83;25697;-76
2022/11/10 07:49:11;;;;;;;41.60;24.85;;;;;;;6.91;80.30;97713.89;1718239;83;26333;-74
2022/11/10 07:51:38;;;;;;;42.48;26.27;;;;;;;6.94;80.31;97721.59;1718224;83;25733;-77
2022/11/10 07:54:05;;;;;;;51.33;28.55;;;;;;;6.97;80.28;97725.27;1718190;83;26841;-74
2022/11/10 07:56:31;;;;;;;44.18;25.97;;;;;;;6.99;80.25;97723.23;1718044;83;25688;-76
2022/11/10 07:58:58;;;;;;;40.43;25.92;;;;;;;7.02;80.30;97724.20;1717899;83;25725;-74
2022/11/10 08:01:24;;;;;;;37.93;23.75;;;;;;;7.05;80.37;97725.19;1717915;83;25749;-74
2022/11/10 08:03:51;;;;;;;38.70;24.82;;;;;;;7.08;80.35;97731.03;1718091;83;25281;-75
2022/11/10 08:06:17;;;;;;;44.75;24.45;;;;;;;7.11;80.35;97737.39;1718173;83;27427;-74
2022/11/10 08:08:47;;;;;;;42.93;25.60;;;;;;;7.13;80.37;97734.50;1718171;83;25648;-75
2022/11/10 08:11:14;;;;;;;43.70;24.77;;;;;;;7.14;80.38;97732.14;1718124;83;25252;-74
2022/11/10 08:13:41;;;;;;;46.42;25.70;;;;;;;7.18;80.49;97734.80;1718174;83;25451;-74
2022/11/10 08:16:07;;;;;;;50.15;26.25;;;;;;;7.18;80.49;97748.22;1718028;83;25846;-74
2022/11/10 08:18:34;;;;;;;44.05;25.32;;;;;;;7.22;80.49;97746.85;1745191;82;27364;-74
2022/11/10 08:21:03;;;;;;;45.65;25.70;;;;;;;7.22;80.51;97752.22;1752990;81;25687;-74
2022/11/10 08:23:29;;;;;;;43.68;25.08;;;;;;;7.24;80.51;97758.25;1753178;81;25690;-77
2022/11/10 08:26:00;;;;;;;50.55;28.07;;;;;;;7.28;80.52;97759.53;1753071;81;25642;-74
2022/11/10 08:28:28;;;;;;;54.00;31.48;;;;;;;7.31;80.51;97764.55;1753120;81;25465;-77
2022/11/10 08:30:55;;;;;;;55.17;35.90;;;;;;;7.35;80.45;97769.89;1753027;81;28213;-74
2022/11/10 08:33:21;;;;;;;59.33;37.08;;;;;;;7.36;80.34;97764.85;1752992;81;25221;-76
2022/11/10 08:35:51;;;;;;;55.23;36.42;;;;;;;7.34;80.34;97767.39;1753272;81;25708;-74
2022/11/10 08:38:23;;;;;;;61.45;38.15;;;;;;;7.31;80.35;97769.92;1753086;81;25833;-74
2022/11/10 08:40:50;;;;;;;61.23;39.88;;;;;;;7.33;80.33;97773.77;1753014;81;25411;-74
2022/11/10 08:43:17;;;;;;;62.67;38.53;;;;;;;7.34;80.34;97781.65;1753148;81;27524;-75
2022/11/10 08:45:45;;;;;;;59.70;41.53;;;;;;;7.38;80.30;97783.44;1753021;81;25726;-74
2022/11/10 08:48:19;;;;;;;67.08;41.77;;;;;;;7.37;80.22;97787.98;1753094;81;25286;-77
2022/11/10 08:50:48;;;;;;;63.85;40.38;;;;;;;7.39;80.26;97790.48;1661408;86;25829;-74
2022/11/10 08:53:19;;;;;;;59.75;39.98;;;;;;;7.40;80.29;97793.50;1661385;86;25952;-75
2022/11/10 08:55:46;;;;;;;62.60;39.75;;;;;;;7.43;80.33;97803.88;1657960;86;27391;-74
2022/11/10 08:58:17;;;;;;;63.70;43.10;;;;;;;7.45;80.35;97806.72;1641068;87;25296;-74
2022/11/10 09:00:44;;;;;;;65.12;44.40;;;;;;;7.49;80.37;97813.37;1657704;86;25841;-74
2022/11/10 09:03:19;;;;;;;67.37;44.63;;;;;;;7.52;80.34;97810.34;1658033;86;25812;-75
2022/11/10 09:05:47;;;;;;;77.87;48.95;;;;;;;7.57;80.37;97807.95;1628019;88;25884;-75
2022/11/10 09:08:14;;;;;;;67.00;47.62;;;;;;;7.61;80.42;97813.77;1652688;85;27040;-77
2022/11/10 09:10:48;;;;;;;71.57;46.30;;;;;;;7.64;80.46;97819.30;1627956;88;25861;-74
2022/11/10 09:13:16;;;;;;;71.90;48.10;;;;;;;7.68;80.49;97827.33;1641569;87;25302;-74
2022/11/10 09:15:43;;;;;;;77.92;48.05;;;;;;;7.72;80.54;97828.13;1628124;88;25780;-77
2022/11/10 09:18:12;;;;;;;72.92;47.23;;;;;;;7.74;80.52;97833.30;1641717;87;25898;-74
2022/11/10 09:20:40;;;;;;;81.82;52.40;;;;;;;7.76;80.63;97835.30;1628116;87;28287;-75
2022/11/10 09:23:11;;;;;;;77.97;51.90;;;;;;;7.79;80.69;97833.59;1641470;87;25583;-74
2022/11/10 09:25:38;;;;;;;86.12;56.90;;;;;;;7.82;80.78;97842.64;1606249;86;25821;-75
2022/11/10 09:28:13;;;;;;;83.20;57.08;;;;;;;7.85;80.78;97847.62;1592250;90;25910;-75
2022/11/10 09:30:40;;;;;;;81.30;52.85;;;;;;;7.88;80.74;97848.11;1590445;89;25955;-75
2022/11/10 09:33:07;;;;;;;76.72;50.78;;;;;;;7.92;80.71;97847.24;1631251;87;28200;-74
2022/11/10 09:35:34;;;;;;;70.05;46.15;;;;;;;7.97;80.82;97844.81;1654778;86;25625;-75
2022/11/10 09:38:01;;;;;;;65.00;42.35;;;;;;;8.00;80.89;97840.42;1654879;86;25825;-74
2022/11/10 09:40:55;;;;;;;60.60;38.02;;;;;;;8.04;80.92;97849.80;1654914;86;25841;-74
2022/11/10 09:43:29;;;;;;;61.95;39.78;;;;;;;8.07;81.06;97848.09;1652045;86;25836;-75
2022/11/10 09:46:01;;;;;;;55.05;35.80;;;;;;;8.09;81.00;97854.09;1635679;86;27471;-74
2022/11/10 09:48:37;;;;;;;53.98;36.30;;;;;;;8.14;81.02;97861.11;1581804;90;25866;-74
2022/11/10 09:51:17;;;;;;;60.70;38.53;;;;;;;8.15;80.91;97865.47;1653596;86;26545;-77
2022/11/10 09:54:03;;;;;;;55.83;36.75;;;;;;;8.18;80.88;97870.48;1656237;86;25613;-74
2022/11/10 09:56:34;;;;;;;59.40;38.67;;;;;;;8.22;80.85;97873.11;1655175;86;25797;-77
2022/11/10 09:59:09;;;;;;;66.40;43.63;;;;;;;8.23;80.85;97869.41;1607605;89;27563;-76
2022/11/10 10:02:01;;;;;;;66.57;42.30;;;;;;;8.24;80.93;97868.39;1605955;85;25818;-76
2022/11/10 10:04:52;;;;;;;68.52;42.67;;;;;;;8.29;81.00;97874.06;1669534;85;25718;-74
2022/11/10 10:07:47;;;;;;;67.10;41.65;;;;;;;8.34;81.07;97876.71;1668891;85;25853;-75
2022/11/10 10:10:35;;;;;;;61.35;42.62;;;;;;;8.36;81.17;97877.37;1613382;88;25939;-75
2022/11/10 10:13:46;;;;;;;62.58;43.35;;;;;;;8.35;81.19;97879.22;1602193;88;27408;-75
2022/11/10 10:16:33;;;;;;;62.85;41.05;;;;;;;8.39;81.29;97889.11;1602047;88;25892;-75
2022/11/10 10:19:20;;;;;;;62.60;44.27;;;;;;;8.43;81.41;97885.03;1597218;88;25814;-74
2022/11/10 10:21:55;;;;;;;65.42;44.90;;;;;;;8.47;81.41;97891.19;1597205;88;25776;-76
2022/11/10 10:24:26;;;;;;;64.55;45.52;;;;;;;8.51;81.39;97895.19;1563361;91;25814;-75
2022/11/10 10:26:57;;;;;;;71.23;47.90;;;;;;;8.57;81.41;97896.31;1563384;91;27468;-74
2022/11/10 10:29:41;;;;;;;68.80;45.78;;;;;;;8.60;81.48;97898.60;1563477;90;25963;-74
2022/11/10 10:32:14;;;;;;;70.75;43.70;;;;;;;8.65;81.59;97904.27;1448627;97;25874;-74
2022/11/10 10:34:42;;;;;;;68.97;43.70;;;;;;;8.67;81.67;97903.58;1404138;100;25954;-75
2022/11/10 10:37:53;;;;;;;69.27;42.88;;;;;;;8.71;81.69;97896.78;1405966;100;25819;-75
2022/11/10 10:40:23;;;;;;;66.17;41.75;;;;;;;8.75;81.67;97893.20;1406118;100;28128;-75
2022/11/10 10:42:50;;;;;;;70.83;44.67;;;;;;;8.79;81.90;97888.63;1405959;100;25865;-75
2022/11/10 10:45:24;;;;;;;67.47;44.08;;;;;;;8.86;81.89;97889.52;1406059;100;25898;-74
2022/11/10 10:47:54;;;;;;;68.50;43.78;;;;;;;8.93;82.01;97893.14;1418744;100;25904;-74
2022/11/10 10:50:31;;;;;;;68.75;44.00;;;;;;;9.02;82.04;97900.08;1424156;100;25874;-75
2022/11/10 10:53:17;;;;;;;67.42;41.40;;;;;;;9.09;81.95;97908.73;1424154;99;27671;-75
2022/11/10 10:55:52;;;;;;;61.00;40.80;;;;;;;9.14;81.96;97900.93;1432825;98;25900;-75
2022/11/10 10:58:49;;;;;;;64.15;40.08;;;;;;;9.15;81.74;97899.91;1438928;99;25835;-75
2022/11/10 11:01:29;;;;;;;63.02;37.50;;;;;;;9.19;81.73;97907.91;1435243;98;25801;-75
2022/11/10 11:03:56;;;;;;;55.12;34.55;;;;;;;9.21;81.79;97908.05;1440845;99;25482;-75
2022/11/10 11:06:26;;;;;;;52.33;34.20;;;;;;;9.25;81.69;97907.16;1439026;98;28334;-75
2022/11/10 11:08:58;;;;;;;59.23;37.60;;;;;;;9.28;81.62;97910.83;1440745;98;25453;-75
2022/11/10 11:11:32;;;;;;;56.50;34.13;;;;;;;9.32;81.58;97921.53;1439127;98;32609;-75
2022/11/10 11:14:21;;;;;;;54.88;36.05;;;;;;;9.37;81.57;97917.77;1420545;101;25918;-77
2022/11/10 11:17:02;;;;;;;54.63;35.68;;;;;;;9.39;81.48;97902.24;1418753;99;25964;-74
2022/11/10 11:19:35;;;;;;;59.40;36.88;;;;;;;9.43;81.52;97906.20;1420456;101;27461;-75
2022/11/10 11:22:36;;;;;;;61.45;39.70;;;;;;;9.49;81.57;97897.37;1445443;97;25839;-74
2022/11/10 11:25:17;;;;;;;62.60;39.00;;;;;;;9.54;81.60;97902.19;1449371;97;25877;-75
2022/11/10 11:27:52;;;;;;;56.85;37.73;;;;;;;9.62;81.68;97910.97;1474415;96;25810;-73
2022/11/10 11:30:24;;;;;;;64.75;41.90;;;;;;;9.67;81.55;97916.59;1502861;95;25784;-75
2022/11/10 11:32:58;;;;;;;62.62;41.23;;;;;;;9.70;81.47;97918.08;1565712;91;28242;-76
2022/11/10 11:35:39;;;;;;;66.28;42.45;;;;;;;9.71;81.39;97919.23;1575156;91;25517;-75
2022/11/10 11:38:32;;;;;;;64.30;42.23;;;;;;;9.73;81.37;97922.58;1550894;92;25769;-74
2022/11/10 11:41:09;;;;;;;64.17;40.80;;;;;;;9.75;81.40;97926.44;1541112;93;25912;-73
2022/11/10 11:43:59;;;;;;;64.50;40.33;;;;;;;9.79;81.42;97935.78;1540990;93;25849;-75
2022/11/10 11:46:43;;;;;;;65.80;41.42;;;;;;;9.79;81.44;97937.64;1540881;93;27756;-76
2022/11/10 11:49:50;;;;;;;59.77;38.78;;;;;;;9.79;81.41;97948.42;1540955;93;25959;-74
2022/11/10 11:52:35;;;;;;;60.03;38.10;;;;;;;9.80;81.40;97939.31;1541128;93;25901;-74
2022/11/10 11:55:40;;;;;;;62.73;37.60;;;;;;;9.80;81.42;97944.70;1520005;91;26430;-75